Seer Green, United Kingdom
Current Conditions -  °F | °C
As of 1:50 PM on Thursday 30 Oct 2014 (Local Time) from EGWU Reporting Station
Broken Clouds Broken Clouds  
Wind Chill: 64°   Ceiling: 2000
Heat Index: 64°   Visibility: 6mi
Dew Point: 57°   Wind: 6mph
Humidity: 77%   Direction: 240°WSW
Pressure: 30.06"   Gusts: NA
Location:  51.62°N, 0.61°W
Report Text: EGWU 301350Z 24005KT 9999 SCT015 BKN020 18/14 Q1018 WHT TEMPO FEW020 BLU
Loading
Personal Weather Stations






























Interactive Weather Map
Tropical Storm Tracking
New forecast layout! Learn more

10-Day Weather Forecast

Advertisements
Track Severe Weather on mobile